Time;durP1;ratioP1;P1;durP2;ratioP2;P2;SDS_P1;SDS_P2;PMS_P1;PMS_P2;Temp;Humidity;BMP_temperature;BMP_pressure;BME280_temperature;BME280_humidity;BME280_pressure;Samples;Min_cycle;Max_cycle;Signal;HPM_P1;HPM_P2
2023/01/12 00:02:17;;;;;;;9.45;1.75;;;7.80;99.90;;;;;;4949067;28;20086;-65
2023/01/12 00:04:43;;;;;;;12.07;2.28;;;7.80;99.90;;;;;;4949199;29;20047;-66
2023/01/12 00:07:10;;;;;;;11.50;2.67;;;7.90;99.90;;;;;;4931903;29;20066;-64
2023/01/12 00:09:36;;;;;;;12.85;2.80;;;7.90;99.90;;;;;;4946659;28;20051;-66
2023/01/12 00:12:04;;;;;;;14.80;3.08;;;7.90;99.90;;;;;;4934503;29;20058;-64
2023/01/12 00:14:33;;;;;;;13.63;2.50;;;7.90;99.90;;;;;;4917697;29;20047;-63
2023/01/12 00:16:59;;;;;;;14.43;3.40;;;7.80;99.90;;;;;;4929188;29;20070;-64
2023/01/12 00:19:25;;;;;;;11.63;2.78;;;7.90;99.90;;;;;;4950633;29;20133;-66
2023/01/12 00:24:39;;;;;;;11.57;2.50;;;7.70;99.90;;;;;;4950636;29;20529;-64
2023/01/12 00:27:09;;;;;;;15.40;3.10;;;7.70;99.90;;;;;;4963056;28;20117;-64
2023/01/12 00:29:35;;;;;;;15.07;2.28;;;7.60;99.90;;;;;;4979438;28;20589;-65
2023/01/12 00:32:01;;;;;;;9.43;2.22;;;7.70;99.90;;;;;;4948931;28;20078;-65
2023/01/12 00:34:27;;;;;;;12.43;2.55;;;7.70;99.90;;;;;;4948512;28;20067;-63
2023/01/12 00:36:53;;;;;;;12.88;2.13;;;7.60;99.90;;;;;;4931811;29;20139;-62
2023/01/12 00:39:19;;;;;;;13.10;2.70;;;7.70;99.90;;;;;;4916015;29;20508;-63
2023/01/12 00:47:16;;;;;;;13.95;3.00;;;7.70;99.90;;;;;;4943881;28;20051;-65
2023/01/12 00:49:42;;;;;;;13.73;2.80;;;7.60;99.90;;;;;;4932763;29;20135;-63
2023/01/12 00:52:11;;;;;;;12.32;2.72;;;7.70;99.90;;;;;;4948973;28;20145;-64
2023/01/12 00:54:37;;;;;;;9.75;2.17;;;7.70;99.90;;;;;;4948519;28;20048;-64
2023/01/12 00:57:03;;;;;;;12.90;2.90;;;7.70;99.90;;;;;;4950646;28;20055;-64
2023/01/12 00:59:29;;;;;;;12.95;2.85;;;7.70;99.90;;;;;;4959183;28;20068;-64
2023/01/12 01:01:56;;;;;;;13.15;2.42;;;7.70;99.90;;;;;;4934335;29;20062;-65
2023/01/12 01:04:23;;;;;;;10.60;2.90;;;7.70;99.90;;;;;;4933505;29;20043;-63
2023/01/12 01:06:49;;;;;;;10.43;2.75;;;7.70;99.90;;;;;;4965509;28;20175;-63
2023/01/12 01:09:14;;;;;;;10.38;2.92;;;7.80;99.90;;;;;;4949907;28;20380;-64
2023/01/12 01:11:41;;;;;;;15.38;2.88;;;7.70;99.90;;;;;;4951041;28;20082;-64
2023/01/12 01:14:07;;;;;;;13.63;3.13;;;7.70;99.90;;;;;;4919931;29;20074;-63
2023/01/12 01:16:33;;;;;;;16.30;2.78;;;7.70;99.90;;;;;;4950415;28;20078;-64
2023/01/12 01:18:59;;;;;;;12.85;2.22;;;7.70;99.90;;;;;;4950799;28;20118;-63
2023/01/12 01:21:25;;;;;;;10.90;2.40;;;7.70;99.90;;;;;;4966149;28;20109;-64
2023/01/12 01:23:51;;;;;;;12.43;2.67;;;7.70;99.90;;;;;;4952026;28;20051;-63
2023/01/12 01:26:19;;;;;;;12.00;2.33;;;7.60;99.90;;;;;;4934632;29;20054;-64
2023/01/12 01:28:45;;;;;;;12.00;2.85;;;7.70;99.90;;;;;;4950312;28;20126;-65
2023/01/12 01:31:15;;;;;;;8.00;2.15;;;7.80;99.90;;;;;;4934910;29;20047;-67
2023/01/12 01:33:41;;;;;;;15.90;2.58;;;7.70;99.90;;;;;;4946296;28;20076;-63
2023/01/12 01:36:06;;;;;;;13.82;2.90;;;7.70;99.90;;;;;;4950479;29;20055;-63
2023/01/12 01:38:32;;;;;;;12.60;2.40;;;7.70;99.90;;;;;;4933690;28;20501;-64
2023/01/12 01:40:58;;;;;;;12.85;2.63;;;7.60;99.90;;;;;;4934383;29;20051;-64
2023/01/12 01:43:25;;;;;;;10.55;2.17;;;7.60;99.90;;;;;;4950129;29;20129;-63
2023/01/12 01:45:57;;;;;;;15.02;2.78;;;7.60;99.90;;;;;;4933172;29;20054;-64
2023/01/12 01:48:23;;;;;;;8.98;1.92;;;7.60;99.90;;;;;;4935112;28;20126;-66
2023/01/12 01:51:01;;;;;;;13.43;2.40;;;7.50;99.90;;;;;;4964712;28;20497;-65
2023/01/12 01:53:28;;;;;;;10.02;2.08;;;7.50;99.90;;;;;;4933935;29;20790;-63
2023/01/12 01:56:02;;;;;;;12.23;2.20;;;7.50;99.90;;;;;;4950063;28;20054;-63
2023/01/12 01:58:34;;;;;;;9.85;2.00;;;7.50;99.90;;;;;;4934457;29;20133;-62
2023/01/12 02:01:00;;;;;;;10.25;2.08;;;7.50;99.90;;;;;;4935645;29;20051;-64
2023/01/12 02:03:30;;;;;;;10.00;2.25;;;7.50;99.90;;;;;;4952141;29;20074;-66
2023/01/12 02:05:56;;;;;;;10.65;2.10;;;7.50;99.90;;;;;;4944924;29;20047;-64
2023/01/12 02:08:56;;;;;;;11.90;2.53;;;7.50;99.90;;;;;;4934466;29;20130;-64
2023/01/12 02:17:23;;;;;;;10.50;2.20;;;7.60;99.90;;;;;;4949665;29;20083;-63
2023/01/12 02:20:20;;;;;;;8.40;2.00;;;7.60;99.90;;;;;;4964099;28;20043;-64
2023/01/12 02:23:23;;;;;;;10.63;2.08;;;7.60;99.90;;;;;;4943771;29;20417;-64
2023/01/12 02:26:20;;;;;;;12.40;2.38;;;7.60;99.90;;;;;;4947707;28;20043;-65
2023/01/12 02:29:07;;;;;;;8.32;2.28;;;7.60;99.90;;;;;;4946237;29;20090;-66
2023/01/12 02:31:33;;;;;;;12.98;2.38;;;7.60;99.90;;;;;;4949358;29;20426;-66
2023/01/12 02:34:08;;;;;;;9.70;2.40;;;7.60;99.90;;;;;;4950654;28;20153;-64
2023/01/12 02:36:52;;;;;;;9.10;2.00;;;7.60;99.90;;;;;;4985455;28;20046;-63
2023/01/12 02:39:32;;;;;;;10.35;2.00;;;7.60;99.90;;;;;;4951221;29;20047;-64
2023/01/12 02:44:58;;;;;;;10.35;2.10;;;7.60;99.90;;;;;;4954178;29;20061;-64
2023/01/12 02:47:31;;;;;;;;;;;7.60;99.90;;;;;;4932199;29;20741;-64
2023/01/12 02:49:58;;;;;;;11.00;2.03;;;7.60;99.90;;;;;;4953945;29;19925;-63
2023/01/12 02:52:24;;;;;;;10.40;2.07;;;7.60;99.90;;;;;;4954352;29;20058;-72
2023/01/12 02:54:50;;;;;;;13.65;2.10;;;7.60;99.90;;;;;;4938504;29;20299;-72
2023/01/12 02:57:15;;;;;;;10.98;2.10;;;7.60;99.90;;;;;;4935660;29;20047;-71
2023/01/12 02:59:44;;;;;;;7.40;1.60;;;7.60;99.90;;;;;;4937706;28;20078;-64
2023/01/12 03:02:11;;;;;;;;;;;7.70;99.90;;;;;;4954828;28;20477;-64
2023/01/12 03:04:37;;;;;;;9.90;1.75;;;7.60;99.90;;;;;;4952353;28;20459;-63
2023/01/12 03:07:02;;;;;;;8.48;2.13;;;7.70;99.90;;;;;;4952985;28;20867;-64
2023/01/12 03:09:34;;;;;;;10.32;1.98;;;7.70;99.90;;;;;;4954638;28;20058;-71
2023/01/12 03:12:02;;;;;;;9.38;1.85;;;7.70;99.90;;;;;;4952957;29;20147;-63
2023/01/12 03:14:29;;;;;;;6.47;1.60;;;7.80;99.90;;;;;;4937214;29;20077;-64
2023/01/12 03:16:55;;;;;;;9.00;1.40;;;7.80;99.90;;;;;;4935230;28;20194;-72
2023/01/12 03:19:24;;;;;;;6.47;1.80;;;7.80;99.90;;;;;;4952469;28;20162;-72
2023/01/12 03:21:55;;;;;;;7.38;1.38;;;7.90;99.90;;;;;;4952628;28;20039;-72
2023/01/12 03:24:42;;;;;;;6.53;1.30;;;7.90;99.90;;;;;;4936913;28;20043;-73
2023/01/12 03:27:16;;;;;;;7.07;1.63;;;7.90;99.90;;;;;;4953101;29;20047;-71
2023/01/12 03:30:03;;;;;;;8.15;1.83;;;7.90;99.90;;;;;;4920536;29;20092;-74
2023/01/12 03:32:29;;;;;;;11.73;1.67;;;7.90;99.90;;;;;;4949434;28;20051;-72
2023/01/12 03:34:55;;;;;;;6.60;1.80;;;7.90;99.90;;;;;;4932942;29;20351;-71
2023/01/12 03:37:24;;;;;;;7.40;1.40;;;7.90;99.90;;;;;;4952945;29;20105;-71
2023/01/12 03:40:10;;;;;;;8.55;1.73;;;7.90;99.90;;;;;;4949537;28;20451;-72
2023/01/12 03:42:49;;;;;;;9.50;1.77;;;8.00;99.90;;;;;;4937332;29;20058;-71
2023/01/12 03:45:30;;;;;;;;;;;7.90;99.90;;;;;;4951081;28;20047;-71
2023/01/12 03:48:31;;;;;;;4.50;1.30;;;7.90;99.90;;;;;;4952424;28;19925;-72
2023/01/12 03:51:02;;;;;;;8.07;1.33;;;7.90;99.90;;;;;;4951823;28;20085;-71
2023/01/12 03:53:28;;;;;;;6.82;1.42;;;7.90;99.90;;;;;;4952059;28;20046;-70
2023/01/12 03:55:57;;;;;;;9.05;1.42;;;7.90;99.90;;;;;;4935489;28;20049;-71
2023/01/12 03:58:25;;;;;;;6.53;1.85;;;7.90;99.90;;;;;;4921152;29;20047;-71
2023/01/12 04:00:51;;;;;;;8.32;1.80;;;7.90;99.90;;;;;;4935219;29;20043;-72
2023/01/12 04:03:17;;;;;;;9.10;1.83;;;7.90;99.90;;;;;;4952233;28;20067;-71
2023/01/12 04:05:43;;;;;;;8.23;1.90;;;8.00;99.90;;;;;;4935910;29;20058;-72
2023/01/12 04:08:13;;;;;;;7.55;1.63;;;8.00;99.90;;;;;;4935903;28;20051;-72
2023/01/12 04:10:39;;;;;;;6.47;1.88;;;8.00;99.90;;;;;;4946592;28;20050;-72
2023/01/12 04:13:05;;;;;;;8.02;2.22;;;8.00;99.90;;;;;;4951823;28;20058;-72
2023/01/12 04:15:35;;;;;;;9.27;2.17;;;7.90;99.90;;;;;;4935429;29;20093;-72
2023/01/12 04:18:00;;;;;;;8.15;1.98;;;8.00;99.90;;;;;;4936618;28;20054;-72
2023/01/12 04:20:26;;;;;;;8.73;1.80;;;8.00;99.90;;;;;;4981725;28;20047;-72
2023/01/12 04:22:52;;;;;;;4.15;1.55;;;8.00;99.90;;;;;;4951529;28;20043;-70
2023/01/12 04:25:20;;;;;;;6.45;1.55;;;8.00;99.90;;;;;;4934075;28;20054;-72
2023/01/12 04:27:47;;;;;;;5.63;2.35;;;7.90;99.90;;;;;;4951427;28;20075;-72
2023/01/12 04:30:14;;;;;;;8.45;1.73;;;8.00;99.90;;;;;;4949623;29;20770;-72
2023/01/12 04:32:41;;;;;;;7.32;1.40;;;8.00;99.90;;;;;;4950945;28;20086;-72
2023/01/12 04:35:07;;;;;;;7.32;1.67;;;7.90;99.90;;;;;;4951485;29;20058;-72
2023/01/12 04:37:32;;;;;;;10.75;2.00;;;7.90;99.90;;;;;;4952330;28;20043;-72
2023/01/12 04:39:59;;;;;;;7.75;2.03;;;7.90;99.90;;;;;;4950467;29;20065;-72
2023/01/12 04:45:09;;;;;;;9.45;2.03;;;7.90;99.90;;;;;;4953030;29;20055;-72
2023/01/12 04:47:35;;;;;;;8.18;1.83;;;7.90;99.90;;;;;;4930961;29;20369;-72
2023/01/12 04:50:01;;;;;;;10.30;2.17;;;7.90;99.90;;;;;;4967261;28;20470;-71
2023/01/12 04:52:27;;;;;;;14.38;2.67;;;7.90;99.90;;;;;;4966239;28;20055;-71
2023/01/12 04:54:52;;;;;;;8.85;2.35;;;7.90;99.90;;;;;;4950157;28;20160;-71
2023/01/12 04:57:18;;;;;;;9.77;2.00;;;7.90;99.90;;;;;;4951757;28;20733;-71
2023/01/12 04:59:44;;;;;;;9.93;2.70;;;8.00;99.90;;;;;;4950528;29;20051;-71
2023/01/12 05:02:10;;;;;;;11.95;2.08;;;8.00;99.90;;;;;;4951330;28;20114;-71
2023/01/12 05:04:35;;;;;;;7.35;1.27;;;7.90;99.90;;;;;;4952457;28;20047;-71
2023/01/12 05:07:01;;;;;;;9.80;1.80;;;7.90;99.90;;;;;;4936320;29;20697;-72
2023/01/12 05:12:11;;;;;;;4.45;1.20;;;8.00;99.90;;;;;;4946049;29;20062;-72
2023/01/12 05:14:37;;;;;;;8.15;1.42;;;8.00;99.90;;;;;;4951395;28;20050;-71
2023/01/12 05:17:03;;;;;;;8.43;1.80;;;8.00;99.90;;;;;;4967445;28;20472;-72
2023/01/12 05:19:29;;;;;;;4.15;1.48;;;8.00;99.90;;;;;;4936477;29;20051;-72
2023/01/12 05:21:55;;;;;;;4.22;1.23;;;8.10;99.90;;;;;;4968027;28;20058;-72
2023/01/12 05:24:20;;;;;;;8.57;1.70;;;8.10;99.90;;;;;;4951984;28;20074;-71
2023/01/12 05:26:46;;;;;;;7.88;1.40;;;8.10;99.90;;;;;;4934987;29;20125;-71
2023/01/12 05:29:12;;;;;;;4.53;1.10;;;8.10;99.90;;;;;;4931693;29;20058;-72
2023/01/12 05:31:38;;;;;;;4.68;1.40;;;8.10;99.90;;;;;;4946464;28;20051;-72
2023/01/12 05:34:04;;;;;;;6.55;1.40;;;8.10;99.90;;;;;;4967110;28;20062;-71
2023/01/12 05:36:29;;;;;;;8.95;1.63;;;8.10;99.90;;;;;;4934954;29;20043;-71
2023/01/12 05:38:55;;;;;;;9.70;2.08;;;8.10;99.90;;;;;;4950889;28;20138;-71
2023/01/12 05:41:22;;;;;;;6.22;1.40;;;8.10;99.90;;;;;;4934329;29;20170;-72
2023/01/12 05:43:51;;;;;;;6.55;1.25;;;8.00;99.90;;;;;;4950296;29;20059;-71
2023/01/12 05:46:20;;;;;;;7.22;1.60;;;8.10;99.90;;;;;;4965352;28;20548;-72
2023/01/12 05:48:46;;;;;;;7.28;1.42;;;8.10;99.90;;;;;;4934442;29;20126;-72
2023/01/12 05:51:12;;;;;;;8.45;1.63;;;8.10;99.90;;;;;;4949379;29;20118;-72
2023/01/12 05:53:38;;;;;;;8.10;1.55;;;8.10;99.90;;;;;;4950162;29;20047;-73
2023/01/12 05:56:06;;;;;;;11.35;1.73;;;8.10;99.90;;;;;;4939008;29;20128;-72
2023/01/12 05:58:31;;;;;;;8.90;1.60;;;8.00;99.90;;;;;;4930526;29;20087;-71
2023/01/12 06:00:57;;;;;;;5.00;1.33;;;8.00;99.90;;;;;;4947091;29;20039;-71
2023/01/12 06:03:23;;;;;;;11.05;1.27;;;8.10;99.90;;;;;;4934245;29;20138;-71
2023/01/12 06:05:57;;;;;;;6.40;1.33;;;8.10;99.90;;;;;;4964881;28;20049;-71
2023/01/12 06:08:24;;;;;;;8.23;1.70;;;8.10;99.90;;;;;;4949119;28;20074;-72
2023/01/12 06:10:50;;;;;;;7.72;1.88;;;8.10;99.90;;;;;;4950202;28;20067;-71
2023/01/12 06:16:04;;;;;;;6.55;1.83;;;8.10;99.90;;;;;;4949943;29;20557;-71
2023/01/12 06:18:37;;;;;;;5.38;1.58;;;8.10;99.90;;;;;;4943344;29;20070;-71
2023/01/12 06:21:05;;;;;;;8.25;1.77;;;8.20;99.90;;;;;;4965789;28;20469;-72
2023/01/12 06:23:32;;;;;;;8.75;1.85;;;8.20;99.90;;;;;;4950203;28;20051;-71
2023/01/12 06:26:06;;;;;;;4.70;1.20;;;8.20;99.90;;;;;;4981603;28;20054;-71
2023/01/12 06:28:32;;;;;;;7.70;1.85;;;8.30;99.90;;;;;;4950810;28;20098;-72
2023/01/12 06:31:01;;;;;;;9.23;1.33;;;8.30;99.90;;;;;;4950120;28;20074;-63
2023/01/12 06:33:27;;;;;;;3.05;0.95;;;8.40;99.90;;;;;;4931354;29;20051;-65
2023/01/12 06:35:53;;;;;;;4.57;1.00;;;8.40;99.90;;;;;;4950507;28;20455;-64
2023/01/12 06:38:19;;;;;;;5.03;1.30;;;8.30;99.90;;;;;;4933340;29;20051;-65
2023/01/12 06:40:45;;;;;;;4.20;1.30;;;8.40;99.90;;;;;;4948551;29;20053;-64
2023/01/12 06:43:11;;;;;;;6.57;1.23;;;8.30;99.90;;;;;;4949457;29;20043;-64
2023/01/12 06:45:37;;;;;;;4.13;1.13;;;8.30;99.90;;;;;;4929075;28;20051;-65
2023/01/12 06:48:03;;;;;;;6.07;1.42;;;8.40;99.90;;;;;;4933873;29;20050;-64
2023/01/12 06:50:28;;;;;;;3.67;1.25;;;8.40;99.90;;;;;;4949319;28;20043;-62
2023/01/12 06:52:57;;;;;;;4.93;1.25;;;8.50;99.90;;;;;;4965282;28;20058;-62
2023/01/12 06:55:23;;;;;;;8.05;1.77;;;8.40;99.90;;;;;;4932902;29;20062;-62
2023/01/12 06:57:49;;;;;;;3.53;1.10;;;8.40;99.90;;;;;;4950420;28;20043;-64
2023/01/12 07:00:14;;;;;;;4.45;1.08;;;8.40;99.90;;;;;;4948607;28;20082;-63
2023/01/12 07:02:40;;;;;;;3.95;1.02;;;8.50;99.90;;;;;;4949407;29;20627;-63
2023/01/12 07:05:07;;;;;;;4.57;1.45;;;8.50;99.90;;;;;;4930495;29;20048;-64
2023/01/12 07:07:33;;;;;;;4.70;1.33;;;8.50;99.90;;;;;;4977438;28;20129;-63
2023/01/12 07:09:59;;;;;;;6.15;1.27;;;8.50;99.90;;;;;;4949329;28;20221;-64
2023/01/12 07:12:25;;;;;;;5.55;1.00;;;8.50;99.90;;;;;;4961710;28;20075;-63
2023/01/12 07:14:51;;;;;;;5.20;0.95;;;8.50;99.90;;;;;;4945003;28;20043;-64
2023/01/12 07:17:17;;;;;;;7.75;1.42;;;8.50;99.90;;;;;;4950604;28;20051;-63
2023/01/12 07:19:49;;;;;;;5.50;1.40;;;8.60;99.90;;;;;;4927916;28;20039;-62
2023/01/12 07:22:17;;;;;;;8.32;1.30;;;8.60;99.90;;;;;;4954168;28;20058;-64
2023/01/12 07:24:43;;;;;;;5.60;1.50;;;8.60;99.90;;;;;;4936381;29;20046;-63
2023/01/12 07:27:09;;;;;;;5.47;1.30;;;8.60;99.90;;;;;;4968175;28;20102;-63
2023/01/12 07:29:35;;;;;;;9.23;1.85;;;8.60;99.90;;;;;;4969399;28;20560;-63
2023/01/12 07:32:00;;;;;;;6.65;1.30;;;8.60;99.90;;;;;;4954830;28;20126;-65
2023/01/12 07:34:26;;;;;;;5.80;1.45;;;8.60;99.90;;;;;;4952995;28;20066;-64
2023/01/12 07:36:52;;;;;;;6.93;1.35;;;8.60;99.90;;;;;;4953252;28;20047;-64
2023/01/12 07:39:18;;;;;;;4.97;1.30;;;8.70;99.90;;;;;;4953469;29;20500;-64
2023/01/12 07:44:27;;;;;;;5.82;1.40;;;8.70;99.90;;;;;;4952401;29;20671;-64
2023/01/12 07:46:53;;;;;;;7.20;1.45;;;8.70;99.90;;;;;;4952168;29;20078;-63
2023/01/12 07:49:19;;;;;;;6.88;1.27;;;8.80;99.90;;;;;;4951993;29;20055;-64
2023/01/12 07:51:45;;;;;;;7.78;1.92;;;8.80;99.90;;;;;;4984636;28;20059;-63
2023/01/12 07:54:10;;;;;;;7.32;1.50;;;8.80;99.90;;;;;;4952769;28;20056;-63
2023/01/12 07:56:36;;;;;;;7.50;1.60;;;8.90;99.90;;;;;;4952721;29;20051;-63
2023/01/12 07:59:03;;;;;;;7.07;1.27;;;8.90;99.90;;;;;;4951517;28;20039;-63
2023/01/12 08:01:31;;;;;;;4.35;1.40;;;8.90;99.90;;;;;;4920149;29;20043;-64
2023/01/12 08:03:57;;;;;;;7.00;2.25;;;9.00;99.90;;;;;;4952106;29;20416;-64
2023/01/12 08:06:22;;;;;;;9.73;1.60;;;9.00;99.90;;;;;;4951839;28;20466;-63
2023/01/12 08:08:48;;;;;;;7.40;1.50;;;9.00;99.90;;;;;;4951945;29;20051;-65
2023/01/12 08:11:14;;;;;;;7.05;1.33;;;9.00;99.90;;;;;;4936512;29;20829;-65
2023/01/12 08:13:40;;;;;;;6.97;1.98;;;9.00;99.90;;;;;;4952725;29;20046;-63
2023/01/12 08:16:10;;;;;;;4.88;1.50;;;9.00;99.90;;;;;;4949995;28;20055;-63
2023/01/12 08:18:40;;;;;;;5.85;1.40;;;9.00;99.90;;;;;;4921159;29;20047;-64
2023/01/12 08:21:08;;;;;;;9.38;2.55;;;8.90;99.90;;;;;;4935971;29;20050;-63
2023/01/12 08:23:46;;;;;;;9.80;1.67;;;8.90;99.90;;;;;;4935845;29;20135;-63
2023/01/12 08:26:14;;;;;;;4.00;1.20;;;8.70;99.90;;;;;;4936363;28;20085;-63
2023/01/12 08:28:44;;;;;;;3.92;1.35;;;8.70;99.90;;;;;;4933160;28;20577;-63
2023/01/12 08:31:10;;;;;;;9.07;1.55;;;8.70;99.90;;;;;;4935462;29;20047;-63
2023/01/12 08:33:36;;;;;;;8.73;1.17;;;8.80;99.90;;;;;;4951646;28;20520;-64
2023/01/12 08:36:06;;;;;;;5.72;1.23;;;8.80;99.90;;;;;;4934717;28;20055;-63
2023/01/12 08:38:32;;;;;;;4.00;0.93;;;8.80;99.90;;;;;;4967660;28;20051;-63
2023/01/12 08:46:45;;;;;;;4.57;0.95;;;8.90;99.90;;;;;;4946558;29;20801;-64
2023/01/12 08:49:12;;;;;;;4.20;1.27;;;8.80;99.90;;;;;;4951619;28;20058;-64
2023/01/12 08:51:38;;;;;;;5.45;1.50;;;8.80;99.90;;;;;;4951815;28;20057;-63
2023/01/12 08:54:05;;;;;;;4.28;1.23;;;8.90;99.90;;;;;;4935032;29;20050;-64
2023/01/12 08:56:31;;;;;;;6.00;1.42;;;8.90;99.90;;;;;;4951473;28;20042;-63
2023/01/12 08:58:57;;;;;;;6.30;1.20;;;8.90;99.90;;;;;;4952207;28;20055;-63
2023/01/12 09:01:22;;;;;;;5.28;1.45;;;8.90;99.90;;;;;;4951558;29;20218;-63
2023/01/12 09:03:48;;;;;;;5.57;1.30;;;8.80;99.90;;;;;;4935437;29;20481;-64
2023/01/12 09:06:19;;;;;;;4.90;1.63;;;8.80;99.90;;;;;;4950564;28;20043;-63
2023/01/12 09:08:45;;;;;;;3.75;1.20;;;8.80;99.90;;;;;;4930640;29;20143;-63
2023/01/12 09:11:12;;;;;;;4.88;1.25;;;8.80;99.90;;;;;;4935046;29;20039;-64
2023/01/12 09:13:37;;;;;;;4.53;1.02;;;8.90;99.90;;;;;;4967037;28;20134;-64
2023/01/12 09:16:14;;;;;;;5.47;1.13;;;8.80;99.90;;;;;;4932272;29;20469;-63
2023/01/12 09:18:40;;;;;;;4.70;1.20;;;8.90;99.90;;;;;;4935994;29;20047;-65
2023/01/12 09:21:08;;;;;;;2.65;0.88;;;8.90;99.90;;;;;;4934258;29;20070;-64
2023/01/12 09:23:34;;;;;;;8.57;1.47;;;8.90;99.90;;;;;;4950661;29;20042;-63
2023/01/12 09:26:05;;;;;;;6.50;1.30;;;8.90;99.90;;;;;;4950780;28;20080;-63
2023/01/12 09:28:31;;;;;;;3.10;0.80;;;8.90;99.90;;;;;;4934536;29;20129;-64
2023/01/12 09:31:05;;;;;;;5.35;1.20;;;8.90;99.90;;;;;;4918724;29;20110;-63
2023/01/12 09:33:31;;;;;;;4.25;1.10;;;8.90;99.90;;;;;;4945763;28;20529;-63
2023/01/12 09:36:04;;;;;;;4.75;1.30;;;8.90;99.90;;;;;;4933956;28;20070;-63
2023/01/12 09:38:30;;;;;;;4.68;0.93;;;9.00;99.90;;;;;;4967086;28;20047;-63
2023/01/12 09:41:00;;;;;;;2.97;1.10;;;9.00;99.90;;;;;;4966671;28;20059;-63
2023/01/12 09:49:03;;;;;;;3.05;0.95;;;9.00;99.90;;;;;;4927284;29;20051;-64
2023/01/12 09:51:35;;;;;;;2.75;1.05;;;9.10;99.90;;;;;;4950401;28;20046;-64
2023/01/12 09:54:02;;;;;;;3.55;1.10;;;9.10;99.90;;;;;;4934684;29;20051;-63
2023/01/12 09:56:30;;;;;;;3.92;1.00;;;9.10;99.90;;;;;;4962942;28;20047;-63
2023/01/12 09:59:15;;;;;;;3.55;1.13;;;9.10;99.90;;;;;;4966032;28;20739;-63
2023/01/12 10:01:40;;;;;;;2.97;1.10;;;9.10;99.90;;;;;;4949374;29;20055;-63
2023/01/12 10:04:06;;;;;;;4.03;1.00;;;9.10;99.90;;;;;;4918228;29;20477;-63
2023/01/12 10:06:32;;;;;;;2.22;1.30;;;9.10;99.90;;;;;;4981814;28;20047;-63
2023/01/12 10:09:05;;;;;;;3.70;0.98;;;9.10;99.90;;;;;;4935121;29;20105;-63
2023/01/12 10:11:46;;;;;;;4.32;1.33;;;9.20;99.90;;;;;;4934237;29;20051;-66
2023/01/12 10:14:38;;;;;;;6.60;1.23;;;9.20;99.90;;;;;;4951437;28;20078;-65
2023/01/12 10:18:02;;;;;;;2.13;1.05;;;9.20;99.90;;;;;;4948222;28;20671;-63
2023/01/12 10:20:38;;;;;;;2.53;0.98;;;9.30;99.90;;;;;;4924648;29;20044;-64
2023/01/12 10:23:07;;;;;;;5.57;1.10;;;9.40;99.90;;;;;;4928341;29;20118;-63
2023/01/12 10:25:45;;;;;;;1.88;1.00;;;9.30;99.90;;;;;;4937599;29;20066;-64
2023/01/12 10:28:29;;;;;;;3.60;0.80;;;9.40;99.90;;;;;;4949929;29;20047;-65
2023/01/12 10:30:55;;;;;;;3.97;0.90;;;9.40;99.90;;;;;;4949951;29;20067;-63
2023/01/12 10:33:22;;;;;;;2.97;0.75;;;9.40;99.90;;;;;;4949781;29;20043;-62
2023/01/12 10:35:48;;;;;;;1.70;1.17;;;9.40;99.90;;;;;;4949699;28;20122;-64
2023/01/12 10:38:26;;;;;;;2.13;0.80;;;9.40;99.90;;;;;;4965385;28;20541;-63
2023/01/12 10:41:17;;;;;;;5.18;1.00;;;9.40;99.90;;;;;;4949336;28;20070;-63
2023/01/12 10:43:44;;;;;;;3.28;0.77;;;9.40;99.90;;;;;;4935131;29;20187;-64
2023/01/12 10:46:12;;;;;;;2.45;0.90;;;9.30;99.90;;;;;;4965552;28;20134;-62
2023/01/12 10:48:39;;;;;;;1.90;0.60;;;9.30;99.90;;;;;;4933704;28;20619;-65
2023/01/12 10:51:06;;;;;;;1.83;0.73;;;9.40;99.90;;;;;;4918364;29;20089;-66
2023/01/12 10:53:37;;;;;;;2.75;0.98;;;9.30;99.90;;;;;;4950374;28;20043;-63
2023/01/12 10:56:49;;;;;;;2.95;0.70;;;9.30;99.90;;;;;;4949994;29;20081;-65
2023/01/12 10:59:18;;;;;;;1.95;0.88;;;9.30;99.90;;;;;;4940581;29;20051;-63
2023/01/12 11:01:51;;;;;;;1.88;0.90;;;9.30;99.90;;;;;;4936931;28;20083;-64
2023/01/12 11:04:22;;;;;;;2.13;0.70;;;9.40;99.90;;;;;;4953964;28;20051;-63
2023/01/12 11:07:18;;;;;;;1.75;0.60;;;9.30;99.90;;;;;;4936419;28;20047;-64
2023/01/12 11:09:44;;;;;;;2.05;0.60;;;9.40;99.90;;;;;;4952639;29;20058;-63
2023/01/12 11:12:19;;;;;;;2.75;0.90;;;9.40;99.90;;;;;;4952765;29;20117;-65
2023/01/12 11:15:05;;;;;;;1.50;0.50;;;9.30;99.90;;;;;;4953097;29;20461;-65
2023/01/12 11:18:02;;;;;;;2.58;0.80;;;9.40;99.90;;;;;;4953520;28;20049;-64
2023/01/12 11:20:44;;;;;;;1.27;0.57;;;9.40;99.90;;;;;;4948421;28;20043;-65
2023/01/12 11:23:30;;;;;;;0.77;0.45;;;9.40;99.90;;;;;;4937731;29;20047;-64
2023/01/12 11:25:56;;;;;;;2.35;0.50;;;9.40;99.90;;;;;;4934178;29;20062;-64
2023/01/12 11:28:40;;;;;;;1.30;0.45;;;9.40;99.90;;;;;;4951951;29;20430;-66
2023/01/12 11:31:27;;;;;;;1.17;0.40;;;9.40;99.90;;;;;;4948414;28;20043;-64
2023/01/12 11:34:08;;;;;;;1.13;0.50;;;9.40;99.90;;;;;;4921370;29;20051;-65
2023/01/12 11:36:40;;;;;;;2.03;0.40;;;9.40;99.90;;;;;;4953667;28;20054;-66
2023/01/12 11:39:13;;;;;;;1.85;0.65;;;9.40;99.90;;;;;;4952611;28;20676;-64
2023/01/12 11:45:19;;;;;;;1.58;0.50;;;9.30;99.90;;;;;;4953086;29;20062;-63
2023/01/12 11:47:49;;;;;;;0.65;0.40;;;9.40;99.90;;;;;;4962208;28;20559;-64
2023/01/12 11:50:29;;;;;;;3.53;0.70;;;9.40;99.90;;;;;;4937470;29;20341;-64
2023/01/12 11:52:55;;;;;;;1.80;0.60;;;9.40;99.90;;;;;;4920422;29;20059;-64
2023/01/12 11:55:58;;;;;;;1.58;0.63;;;9.40;99.90;;;;;;4936261;28;20054;-65
2023/01/12 11:58:52;;;;;;;1.83;0.50;;;9.40;99.90;;;;;;4953228;29;20043;-65
2023/01/12 12:01:34;;;;;;;2.38;0.50;;;9.40;99.90;;;;;;4945474;29;20421;-64
2023/01/12 12:04:37;;;;;;;0.75;0.35;;;9.30;99.90;;;;;;4947921;29;20047;-65
2023/01/12 12:07:36;;;;;;;0.65;0.20;;;9.30;99.90;;;;;;4924007;29;20140;-63
2023/01/12 12:10:40;;;;;;;1.65;0.22;;;9.30;99.90;;;;;;4950731;28;20411;-63
2023/01/12 12:13:25;;;;;;;0.60;0.30;;;9.40;99.90;;;;;;4949196;29;20046;-63
2023/01/12 12:16:06;;;;;;;0.35;0.35;;;9.40;99.90;;;;;;4967804;28;20158;-64
2023/01/12 12:18:43;;;;;;;1.80;0.40;;;9.40;99.90;;;;;;4952153;29;20138;-66
2023/01/12 12:21:18;;;;;;;0.90;0.40;;;9.40;99.90;;;;;;4968264;28;20497;-64
2023/01/12 12:23:47;;;;;;;1.85;0.25;;;9.40;99.90;;;;;;4953152;29;20524;-63
2023/01/12 12:26:29;;;;;;;1.40;0.43;;;9.50;99.90;;;;;;4952738;28;20365;-64
2023/01/12 12:29:00;;;;;;;1.08;0.40;;;9.50;99.90;;;;;;4937842;28;20097;-63
2023/01/12 12:31:50;;;;;;;0.75;0.35;;;9.50;99.90;;;;;;4954075;29;20139;-64
2023/01/12 12:34:49;;;;;;;2.35;0.30;;;9.40;99.90;;;;;;4948432;29;20382;-64
2023/01/12 12:37:36;;;;;;;1.15;0.40;;;9.50;99.90;;;;;;4952696;29;20134;-64
2023/01/12 12:40:12;;;;;;;1.50;0.20;;;9.50;99.90;;;;;;4952105;28;20075;-65
2023/01/12 12:46:12;;;;;;;0.98;0.30;;;9.50;99.90;;;;;;4946897;29;20053;-63
2023/01/12 12:49:00;;;;;;;2.38;0.70;;;9.60;99.90;;;;;;4951704;29;20050;-63
2023/01/12 12:51:29;;;;;;;0.65;0.40;;;9.60;99.90;;;;;;4943520;29;20052;-63
2023/01/12 12:53:55;;;;;;;1.58;0.43;;;9.60;99.90;;;;;;4936343;29;20524;-63
2023/01/12 12:56:24;;;;;;;3.60;1.02;;;9.60;99.90;;;;;;4951696;28;20055;-63
2023/01/12 12:58:51;;;;;;;1.65;0.38;;;9.60;99.90;;;;;;4915741;29;20047;-64
2023/01/12 13:01:19;;;;;;;0.95;0.40;;;9.50;99.90;;;;;;4935505;29;20105;-63
2023/01/12 13:03:49;;;;;;;0.50;0.28;;;9.60;99.90;;;;;;4952840;28;20385;-63
2023/01/12 13:06:37;;;;;;;0.68;0.38;;;9.60;99.90;;;;;;4950876;29;20054;-63
2023/01/12 13:09:10;;;;;;;0.50;0.40;;;9.60;99.90;;;;;;4951208;28;20047;-66
2023/01/12 13:11:52;;;;;;;2.67;0.45;;;9.50;99.90;;;;;;4951397;28;20106;-64
2023/01/12 13:14:27;;;;;;;1.20;0.50;;;9.50;99.90;;;;;;4945372;29;20051;-63
2023/01/12 13:16:55;;;;;;;2.35;0.35;;;9.50;99.90;;;;;;4946498;28;20485;-65
2023/01/12 13:19:38;;;;;;;1.17;0.50;;;9.60;99.90;;;;;;4966842;28;20050;-65
2023/01/12 13:22:32;;;;;;;0.47;0.38;;;9.50;99.90;;;;;;4951306;29;20043;-65
2023/01/12 13:25:22;;;;;;;0.90;0.60;;;9.50;99.90;;;;;;4939887;29;20048;-64
2023/01/12 13:27:55;;;;;;;1.20;0.50;;;9.50;99.90;;;;;;4952847;28;20047;-64
2023/01/12 13:30:51;;;;;;;1.13;0.43;;;9.60;99.90;;;;;;4951545;29;20047;-65
2023/01/12 13:33:24;;;;;;;1.75;0.47;;;9.60;99.90;;;;;;4944885;29;20051;-64
2023/01/12 13:35:50;;;;;;;0.98;0.50;;;9.50;99.90;;;;;;4949606;29;20051;-63
2023/01/12 13:38:37;;;;;;;1.33;0.50;;;9.50;99.90;;;;;;4950927;29;20373;-65
2023/01/12 13:41:12;;;;;;;0.20;0.17;;;9.50;99.90;;;;;;4951874;28;20057;-64
2023/01/12 13:43:51;;;;;;;2.95;0.65;;;9.60;99.90;;;;;;4950698;29;20054;-64
2023/01/12 13:46:22;;;;;;;1.73;0.50;;;9.60;99.90;;;;;;4958942;28;20062;-64
2023/01/12 13:48:49;;;;;;;0.88;0.30;;;9.60;99.90;;;;;;4951036;28;20039;-65
2023/01/12 13:51:40;;;;;;;1.50;0.50;;;9.60;99.90;;;;;;4934417;29;20047;-64
2023/01/12 13:54:10;;;;;;;1.85;0.50;;;9.60;99.90;;;;;;4966198;28;20505;-63
2023/01/12 13:56:36;;;;;;;0.60;0.30;;;9.60;99.90;;;;;;4934550;29;20082;-65
2023/01/12 13:59:03;;;;;;;2.10;0.52;;;9.70;99.90;;;;;;4933909;29;20126;-64
2023/01/12 14:01:39;;;;;;;0.38;0.38;;;9.60;99.90;;;;;;4949557;29;20462;-64
2023/01/12 14:04:16;;;;;;;0.82;0.40;;;9.70;99.90;;;;;;4959683;28;20072;-63